createdAt,value
2019-02-26T00:01:55.042Z,95.10
2019-02-26T00:04:27.188Z,95.40
2019-02-26T00:06:57.962Z,95.50
2019-02-26T00:09:30.520Z,95.10
2019-02-26T00:12:01.212Z,95.80
2019-02-26T00:14:31.557Z,95.60
2019-02-26T00:17:06.173Z,95.50
2019-02-26T00:19:34.356Z,95.80
2019-02-26T00:22:07.763Z,95.70
2019-02-26T00:24:39.746Z,96.10
2019-02-26T00:27:09.977Z,95.90
2019-02-26T00:29:40.325Z,95.90
2019-02-26T00:32:12.244Z,95.90
2019-02-26T00:34:42.727Z,95.20
2019-02-26T00:37:13.133Z,95.70
2019-02-26T00:39:56.366Z,95.60
2019-02-26T00:42:28.658Z,95.00
2019-02-26T00:45:00.953Z,94.90
2019-02-26T00:47:33.847Z,94.80
2019-02-26T00:50:02.865Z,95.10
2019-02-26T00:52:34.840Z,95.20
2019-02-26T00:55:07.112Z,95.30
2019-02-26T00:57:40.692Z,95.20
2019-02-26T01:00:13.415Z,95.00
2019-02-26T01:02:43.794Z,95.30
2019-02-26T01:05:15.707Z,95.00
2019-02-26T01:07:49.300Z,95.00
2019-02-26T01:10:21.054Z,95.00
2019-02-26T01:12:50.810Z,95.00
2019-02-26T01:15:21.164Z,94.60
2019-02-26T01:17:51.569Z,94.50
2019-02-26T01:20:24.293Z,94.40
2019-02-26T01:22:54.029Z,94.40
2019-02-26T01:25:24.384Z,93.90
2019-02-26T01:27:56.291Z,93.90
2019-02-26T01:30:28.906Z,93.80
2019-02-26T01:33:00.552Z,94.10
2019-02-26T01:35:33.169Z,93.70
2019-02-26T01:38:04.182Z,93.50
2019-02-26T01:40:34.562Z,93.30
2019-02-26T01:43:05.632Z,93.40
2019-02-26T01:45:36.069Z,93.30
2019-02-26T01:48:08.748Z,93.40
2019-02-26T01:50:40.587Z,93.60
2019-02-26T01:53:12.127Z,93.50
2019-02-26T01:55:44.145Z,93.50
2019-02-26T01:58:16.570Z,93.40
2019-02-26T02:00:46.655Z,93.80
2019-02-26T02:03:18.922Z,93.60
2019-02-26T02:05:50.290Z,93.80
2019-02-26T02:08:24.458Z,93.80
2019-02-26T02:10:56.281Z,93.90
2019-02-26T02:13:28.265Z,93.90
2019-02-26T02:15:57.594Z,93.70
2019-02-26T02:18:29.884Z,93.50
2019-02-26T02:21:00.385Z,93.80
2019-02-26T02:23:30.859Z,93.70
2019-02-26T02:26:04.079Z,93.70
2019-02-26T02:28:35.147Z,93.50
2019-02-26T02:31:05.308Z,93.30
2019-02-26T02:33:37.513Z,93.50
2019-02-26T02:36:11.528Z,93.50
2019-02-26T02:38:39.798Z,93.60
2019-02-26T02:41:10.162Z,93.60
2019-02-26T02:43:40.552Z,93.60
2019-02-26T02:46:10.906Z,93.60
2019-02-26T02:48:41.518Z,93.60
2019-02-26T02:51:13.896Z,93.90
2019-02-26T02:53:45.188Z,93.70
2019-02-26T02:56:17.840Z,93.60
2019-02-26T02:58:51.597Z,93.80
2019-02-26T03:01:22.957Z,93.70
2019-02-26T03:03:55.617Z,93.80
2019-02-26T03:06:29.516Z,93.80
2019-02-26T03:08:57.261Z,93.80
2019-02-26T03:11:27.607Z,93.90
2019-02-26T03:13:59.466Z,93.90
2019-02-26T03:16:29.826Z,94.00
2019-02-26T03:19:00.225Z,93.90
2019-02-26T03:21:30.749Z,93.90
2019-02-26T03:24:03.353Z,93.90
2019-02-26T03:26:33.159Z,93.80
2019-02-26T03:29:03.565Z,93.80
2019-02-26T03:31:35.095Z,93.90
2019-02-26T03:34:10.407Z,94.00
2019-02-26T03:36:40.190Z,94.30
2019-02-26T03:39:10.087Z,94.20
2019-02-26T03:41:40.453Z,94.20
2019-02-26T03:44:10.841Z,94.10
2019-02-26T03:46:41.227Z,94.40
2019-02-26T03:49:11.633Z,94.30
2019-02-26T03:51:42.021Z,94.40
2019-02-26T03:54:12.461Z,94.20
2019-02-26T03:56:42.862Z,94.70
2019-02-26T03:59:13.214Z,94.80
2019-02-26T04:01:43.621Z,94.60
2019-02-26T04:04:13.980Z,94.40
2019-02-26T04:06:46.979Z,94.90
2019-02-26T04:09:19.592Z,94.60
2019-02-26T04:11:51.028Z,94.30
2019-02-26T04:14:22.902Z,94.50
2019-02-26T04:16:55.942Z,94.60
2019-02-26T04:19:26.742Z,94.60
2019-02-26T04:22:27.961Z,94.90
2019-02-26T04:25:09.233Z,94.80
2019-02-26T04:28:07.760Z,94.80
2019-02-26T04:31:35.084Z,95.50
2019-02-26T04:34:51.420Z,95.40
2019-02-26T04:38:15.005Z,95.10
2019-02-26T04:41:22.249Z,95.10
2019-02-26T04:44:42.953Z,95.30
2019-02-26T04:47:21.985Z,95.00
2019-02-26T04:49:54.412Z,95.10
2019-02-26T04:52:24.847Z,95.30
2019-02-26T04:54:55.223Z,95.10
2019-02-26T04:57:25.597Z,95.30
2019-02-26T04:59:58.374Z,95.20
2019-02-26T05:02:28.290Z,95.20
2019-02-26T05:04:58.638Z,95.30
2019-02-26T05:07:29.047Z,95.20
2019-02-26T05:10:01.901Z,95.20
2019-02-26T05:12:34.045Z,95.30
2019-02-26T05:15:03.403Z,95.30
2019-02-26T05:17:34.802Z,95.20
2019-02-26T05:20:07.170Z,95.20
2019-02-26T05:22:37.317Z,95.10
2019-02-26T05:25:10.851Z,95.30
2019-02-26T05:27:44.664Z,95.00
2019-02-26T05:30:16.494Z,94.90
2019-02-26T05:32:45.545Z,95.20
2019-02-26T05:35:19.647Z,94.90
2019-02-26T05:37:48.853Z,95.10
2019-02-26T05:40:22.214Z,95.10
2019-02-26T05:42:53.345Z,95.10
2019-02-26T05:45:26.347Z,95.30
2019-02-26T05:47:58.799Z,95.10
2019-02-26T05:50:30.187Z,95.00
2019-02-26T05:53:01.837Z,95.10
2019-02-26T05:55:33.844Z,95.20
2019-02-26T05:58:04.294Z,95.00
2019-02-26T06:00:34.675Z,95.10
2019-02-26T06:03:07.196Z,95.00
2019-02-26T06:05:41.165Z,95.00
2019-02-26T06:08:09.114Z,95.20
2019-02-26T06:10:39.490Z,95.10
2019-02-26T06:13:10.744Z,95.20
2019-02-26T06:15:41.951Z,95.40
2019-02-26T06:18:12.286Z,94.90
2019-02-26T06:20:42.638Z,94.90
2019-02-26T06:23:13.009Z,94.90
2019-02-26T06:25:43.401Z,95.00
2019-02-26T06:28:16.005Z,94.90
2019-02-26T06:30:45.737Z,95.20
2019-02-26T06:33:16.485Z,94.90
2019-02-26T06:35:47.053Z,95.10
2019-02-26T06:38:17.393Z,95.00
2019-02-26T06:40:49.123Z,95.00
2019-02-26T06:43:19.774Z,94.90
2019-02-26T06:45:50.113Z,94.90
2019-02-26T06:48:24.465Z,94.90
2019-02-26T06:50:52.466Z,94.80
2019-02-26T06:53:23.057Z,94.70
2019-02-26T06:55:53.545Z,94.80
2019-02-26T06:58:28.535Z,94.90
2019-02-26T07:00:59.977Z,94.60
2019-02-26T07:03:30.377Z,94.80
2019-02-26T07:06:04.118Z,94.80
2019-02-26T07:08:33.597Z,94.70
2019-02-26T07:11:04.044Z,94.70
2019-02-26T07:13:36.315Z,94.70
2019-02-26T07:16:06.371Z,94.60
2019-02-26T07:18:37.113Z,94.60
2019-02-26T07:21:07.445Z,94.50
2019-02-26T07:23:39.902Z,94.80
2019-02-26T07:26:11.708Z,94.30
2019-02-26T07:28:44.008Z,94.20
2019-02-26T07:31:13.945Z,94.00
2019-02-26T07:33:44.349Z,93.90
2019-02-26T07:36:16.169Z,94.00
2019-02-26T07:38:49.120Z,93.90
2019-02-26T07:41:20.777Z,93.90
2019-02-26T07:43:51.966Z,93.70
2019-02-26T07:46:22.962Z,93.70
2019-02-26T07:48:53.879Z,93.80
2019-02-26T07:51:25.298Z,93.90
2019-02-26T07:53:56.492Z,93.70
2019-02-26T07:56:29.953Z,93.60
2019-02-26T07:59:09.810Z,93.40
2019-02-26T08:01:39.906Z,93.20
2019-02-26T08:04:13.376Z,93.00
2019-02-26T08:06:43.490Z,93.00
2019-02-26T08:09:14.721Z,92.60
2019-02-26T08:11:46.906Z,92.60
2019-02-26T08:14:18.496Z,92.50
2019-02-26T08:16:53.583Z,91.90
2019-02-26T08:19:21.789Z,92.00
2019-02-26T08:21:53.212Z,91.60
2019-02-26T08:24:24.676Z,90.70
2019-02-26T08:26:56.391Z,90.50
2019-02-26T08:29:28.895Z,90.70
2019-02-26T08:31:59.647Z,90.60
2019-02-26T08:34:30.721Z,90.20
2019-02-26T08:37:01.270Z,89.00
2019-02-26T08:39:31.690Z,83.90
2019-02-26T08:42:09.795Z,77.00
2019-02-26T08:44:40.211Z,75.60
2019-02-26T08:47:13.465Z,74.80
2019-02-26T08:49:43.514Z,71.90
2019-02-26T08:52:16.886Z,72.40
2019-02-26T08:54:46.590Z,73.60
2019-02-26T08:57:16.998Z,74.60
2019-02-26T08:59:49.522Z,77.10
2019-02-26T09:02:19.417Z,78.80
2019-02-26T09:04:49.757Z,80.10
2019-02-26T09:07:21.811Z,80.40
2019-02-26T09:09:54.319Z,80.80
2019-02-26T09:12:24.645Z,80.80
2019-02-26T09:14:56.113Z,81.90
2019-02-26T09:17:27.531Z,83.10
2019-02-26T09:20:06.971Z,83.10
2019-02-26T09:22:30.876Z,84.40
2019-02-26T09:25:02.182Z,83.90
2019-02-26T09:27:35.108Z,84.30
2019-02-26T09:30:08.518Z,84.80
2019-02-26T09:32:40.282Z,84.00
2019-02-26T09:35:12.158Z,85.80
2019-02-26T09:37:42.883Z,86.60
2019-02-26T09:40:17.133Z,85.50
2019-02-26T09:42:51.744Z,85.20
2019-02-26T09:45:22.464Z,85.20
2019-02-26T09:47:55.648Z,85.80
2019-02-26T09:50:24.721Z,84.50
2019-02-26T09:52:56.585Z,85.20
2019-02-26T09:55:27.057Z,86.10
2019-02-26T09:57:57.722Z,85.00
2019-02-26T10:00:29.525Z,84.20
2019-02-26T10:03:00.225Z,84.70
2019-02-26T10:05:52.565Z,84.80
2019-02-26T10:08:23.142Z,85.10
2019-02-26T10:10:54.974Z,85.10
2019-02-26T10:13:27.812Z,83.60
2019-02-26T10:16:01.394Z,83.60
2019-02-26T10:18:32.936Z,82.10
2019-02-26T10:21:03.417Z,83.70
2019-02-26T10:23:34.842Z,84.40
2019-02-26T10:26:05.770Z,82.40
2019-02-26T10:28:39.441Z,81.20
2019-02-26T10:31:09.712Z,81.90
2019-02-26T10:33:41.165Z,82.70
2019-02-26T10:36:14.967Z,80.80
2019-02-26T10:38:44.669Z,80.80
2019-02-26T10:41:15.017Z,81.60
2019-02-26T10:43:45.389Z,81.30
2019-02-26T10:46:15.733Z,79.60
2019-02-26T10:48:47.954Z,79.70
2019-02-26T10:51:18.188Z,80.10
2019-02-26T10:53:48.578Z,80.80
2019-02-26T10:56:18.910Z,79.00
2019-02-26T10:58:49.440Z,81.20
2019-02-26T11:01:22.632Z,81.00
2019-02-26T11:03:52.907Z,81.20
2019-02-26T11:06:23.856Z,78.90
2019-02-26T11:08:55.759Z,79.90
2019-02-26T11:11:27.309Z,78.30
2019-02-26T11:13:57.672Z,77.40
2019-02-26T11:16:30.468Z,79.50
2019-02-26T11:19:02.380Z,77.60
2019-02-26T11:21:32.277Z,79.80
2019-02-26T11:24:03.676Z,78.70
2019-02-26T11:26:35.949Z,79.60
2019-02-26T11:29:06.833Z,78.20
2019-02-26T11:31:39.621Z,77.50
2019-02-26T11:34:10.949Z,78.10
2019-02-26T11:36:41.146Z,76.90
2019-02-26T11:39:12.168Z,77.80
2019-02-26T11:41:42.642Z,77.70
2019-02-26T11:44:15.553Z,77.70
2019-02-26T11:46:46.752Z,77.90
2019-02-26T11:49:19.277Z,77.50
2019-02-26T11:51:49.169Z,76.10
2019-02-26T11:54:19.557Z,74.90
2019-02-26T11:56:52.385Z,73.20
2019-02-26T11:59:21.945Z,75.50
2019-02-26T12:01:54.228Z,76.40
2019-02-26T12:04:24.980Z,76.00
2019-02-26T12:06:55.800Z,75.60
2019-02-26T12:09:29.996Z,77.50
2019-02-26T12:12:00.887Z,75.00
2019-02-26T12:14:31.524Z,76.00
2019-02-26T12:17:01.898Z,75.50
2019-02-26T12:19:34.492Z,74.90
2019-02-26T12:22:06.084Z,75.90
2019-02-26T12:24:36.417Z,77.50
2019-02-26T12:27:09.211Z,75.90
2019-02-26T12:29:40.205Z,77.40
2019-02-26T12:32:11.162Z,77.60
2019-02-26T12:34:44.586Z,78.80
2019-02-26T12:37:13.787Z,78.80
2019-02-26T12:39:46.977Z,77.70
2019-02-26T12:42:18.485Z,78.20
2019-02-26T12:44:48.528Z,76.30
2019-02-26T12:47:21.662Z,78.30
2019-02-26T12:49:50.911Z,78.50
2019-02-26T12:52:21.889Z,78.00
2019-02-26T12:54:54.957Z,77.90
2019-02-26T12:57:26.882Z,77.80
2019-02-26T12:59:57.267Z,76.70
2019-02-26T13:02:27.613Z,77.00
2019-02-26T13:04:58.001Z,77.20
2019-02-26T13:07:28.335Z,77.10
2019-02-26T13:10:02.767Z,76.20
2019-02-26T13:12:32.228Z,78.00
2019-02-26T13:15:05.651Z,77.30
2019-02-26T13:17:34.739Z,77.50
2019-02-26T13:20:11.093Z,77.50
2019-02-26T13:22:38.289Z,77.50
2019-02-26T13:25:15.069Z,78.10
2019-02-26T13:27:43.685Z,79.00
2019-02-26T13:30:16.735Z,79.50
2019-02-26T13:32:56.306Z,78.80
2019-02-26T13:35:19.504Z,79.60
2019-02-26T13:37:50.657Z,79.20
2019-02-26T13:40:21.729Z,79.60
2019-02-26T13:45:25.822Z,79.50
2019-02-26T13:48:01.052Z,79.30
2019-02-26T13:50:29.234Z,79.00
2019-02-26T13:52:59.570Z,79.70
2019-02-26T13:55:30.114Z,79.00
2019-02-26T13:58:00.445Z,79.60
2019-02-26T14:00:31.723Z,80.30
2019-02-26T14:03:03.625Z,80.60
2019-02-26T14:05:38.081Z,79.70
2019-02-26T14:08:06.425Z,80.90
2019-02-26T14:10:37.257Z,79.80
2019-02-26T14:13:07.598Z,80.90
2019-02-26T14:15:38.285Z,80.20
2019-02-26T14:18:08.620Z,80.10
2019-02-26T14:20:39.011Z,81.00
2019-02-26T14:23:09.386Z,81.00
2019-02-26T14:25:39.754Z,81.30
2019-02-26T14:28:10.120Z,80.80
2019-02-26T14:30:40.485Z,81.30
2019-02-26T14:33:10.865Z,80.90
2019-02-26T14:35:41.209Z,80.90
2019-02-26T14:38:11.577Z,81.30
2019-02-26T14:40:41.913Z,81.10
2019-02-26T14:43:12.297Z,82.30
2019-02-26T14:45:42.649Z,81.20
2019-02-26T14:48:13.879Z,81.30
2019-02-26T14:50:44.322Z,80.90
2019-02-26T14:53:15.569Z,82.20
2019-02-26T14:55:45.913Z,82.20
2019-02-26T14:58:16.305Z,82.40
2019-02-26T15:00:55.045Z,82.40
2019-02-26T15:03:18.714Z,82.50
2019-02-26T15:05:49.074Z,82.20
2019-02-26T15:08:19.593Z,82.60
2019-02-26T15:10:49.939Z,83.00
2019-02-26T15:13:20.408Z,83.10
2019-02-26T15:15:50.766Z,83.60
2019-02-26T15:18:21.185Z,83.60
2019-02-26T15:20:51.738Z,83.90
2019-02-26T15:23:22.081Z,83.80
2019-02-26T15:25:52.450Z,84.20
2019-02-26T15:28:22.787Z,84.60
2019-02-26T15:30:53.703Z,84.40
2019-02-26T15:33:24.089Z,84.10
2019-02-26T15:35:54.773Z,84.00
2019-02-26T15:38:25.115Z,84.00
2019-02-26T15:40:55.571Z,84.30
2019-02-26T15:43:25.941Z,84.90
2019-02-26T15:45:57.748Z,85.00
2019-02-26T15:48:28.341Z,85.70
2019-02-26T15:51:02.059Z,85.40
2019-02-26T15:53:33.365Z,85.40
2019-02-26T15:56:03.745Z,86.00
2019-02-26T15:58:34.261Z,86.00
2019-02-26T16:01:12.814Z,86.10
2019-02-26T16:03:42.485Z,86.20
2019-02-26T16:06:12.881Z,86.60
2019-02-26T16:08:43.499Z,87.50
2019-02-26T16:11:14.477Z,87.20
2019-02-26T16:13:45.122Z,87.40
2019-02-26T16:16:18.036Z,87.90
2019-02-26T16:18:48.535Z,88.40
2019-02-26T16:21:19.436Z,87.60
2019-02-26T16:23:49.862Z,87.80
2019-02-26T16:26:20.245Z,88.20
2019-02-26T16:28:51.981Z,88.90
2019-02-26T16:31:22.374Z,88.90
2019-02-26T16:33:53.069Z,90.00
2019-02-26T16:36:23.540Z,90.30
2019-02-26T16:38:53.886Z,89.60
2019-02-26T16:41:24.589Z,89.20
2019-02-26T16:43:54.929Z,90.00
2019-02-26T16:46:25.601Z,89.90
2019-02-26T16:48:56.010Z,89.90
2019-02-26T16:51:26.493Z,90.00
2019-02-26T16:53:57.206Z,90.10
2019-02-26T16:56:27.574Z,90.10
2019-02-26T16:58:57.917Z,90.30
2019-02-26T17:01:28.455Z,90.20
2019-02-26T17:03:59.184Z,90.20
2019-02-26T17:06:30.774Z,90.40
2019-02-26T17:09:01.122Z,90.50
2019-02-26T17:11:33.222Z,90.80
2019-02-26T17:14:03.665Z,90.80
2019-02-26T17:16:34.140Z,90.70
2019-02-26T17:19:04.563Z,91.00
2019-02-26T17:21:35.141Z,91.20
2019-02-26T17:24:06.327Z,91.10
2019-02-26T17:26:37.061Z,91.10
2019-02-26T17:29:07.402Z,91.70
2019-02-26T17:31:37.774Z,91.70
2019-02-26T17:34:08.544Z,91.70
2019-02-26T17:36:39.018Z,91.80
2019-02-26T17:39:09.954Z,91.80
2019-02-26T17:41:44.671Z,92.10
2019-02-26T17:44:12.910Z,92.30
2019-02-26T17:46:43.317Z,92.10
2019-02-26T17:49:13.753Z,92.30
2019-02-26T17:51:44.165Z,92.30
2019-02-26T17:54:14.582Z,92.40
2019-02-26T17:56:44.982Z,92.80
2019-02-26T17:59:16.916Z,93.00
2019-02-26T18:01:47.433Z,92.80
2019-02-26T18:04:17.773Z,92.80
2019-02-26T18:06:48.185Z,93.30
2019-02-26T18:09:18.543Z,92.80
2019-02-26T18:11:48.986Z,94.20
2019-02-26T18:14:19.349Z,93.80
2019-02-26T18:16:49.735Z,94.00
2019-02-26T18:19:20.102Z,93.90
2019-02-26T18:21:51.748Z,93.60
2019-02-26T18:24:22.243Z,93.50
2019-02-26T18:26:52.597Z,93.80
2019-02-26T18:29:25.326Z,93.40
2019-02-26T18:31:55.013Z,93.70
2019-02-26T18:34:25.476Z,94.10
2019-02-26T18:36:56.185Z,94.00
2019-02-26T18:39:26.566Z,94.20
2019-02-26T18:41:56.928Z,93.90
2019-02-26T18:44:28.598Z,94.10
2019-02-26T18:46:59.009Z,94.50
2019-02-26T18:49:29.477Z,93.90
2019-02-26T18:51:59.840Z,95.10
2019-02-26T18:54:30.173Z,95.70
2019-02-26T18:57:01.635Z,95.60
2019-02-26T18:59:31.990Z,94.70
2019-02-26T19:02:03.522Z,94.70
2019-02-26T19:04:34.405Z,94.70
2019-02-26T19:07:05.295Z,95.30
2019-02-26T19:09:35.750Z,97.30
2019-02-26T19:12:06.489Z,95.60
2019-02-26T19:14:37.011Z,95.60
2019-02-26T19:17:08.514Z,95.30
2019-02-26T19:19:39.733Z,95.10
2019-02-26T19:22:11.003Z,94.90
2019-02-26T19:24:41.333Z,95.20
2019-02-26T19:27:11.741Z,95.70
2019-02-26T19:29:42.163Z,95.40
2019-02-26T19:32:15.411Z,95.40
2019-02-26T19:34:44.574Z,95.40
2019-02-26T19:37:16.725Z,97.00
2019-02-26T19:39:46.906Z,95.70
2019-02-26T19:42:19.054Z,95.30
2019-02-26T19:44:49.322Z,96.30
2019-02-26T19:47:20.532Z,95.90
2019-02-26T19:49:51.652Z,97.90
2019-02-26T19:52:22.007Z,97.00
2019-02-26T19:54:52.337Z,96.00
2019-02-26T19:57:22.705Z,96.60
2019-02-26T19:59:53.110Z,96.10
2019-02-26T20:02:23.722Z,96.30
2019-02-26T20:04:54.105Z,96.30
2019-02-26T20:07:24.474Z,96.10
2019-02-26T20:09:56.125Z,95.80
2019-02-26T20:12:28.565Z,95.50
2019-02-26T20:14:58.473Z,97.60
2019-02-26T20:17:28.835Z,98.00
2019-02-26T20:19:59.319Z,98.60
2019-02-26T20:22:30.621Z,97.60
2019-02-26T20:25:01.750Z,96.40
2019-02-26T20:27:32.122Z,97.30
2019-02-26T20:30:02.510Z,96.80
2019-02-26T20:32:33.037Z,96.40
2019-02-26T20:35:03.897Z,96.50
2019-02-26T20:37:34.318Z,96.40
2019-02-26T20:40:04.806Z,97.20
2019-02-26T20:42:35.171Z,97.80
2019-02-26T20:45:05.951Z,97.10
2019-02-26T20:47:36.294Z,96.50
2019-02-26T20:50:07.293Z,96.60
2019-02-26T20:52:37.721Z,97.70
2019-02-26T20:55:10.063Z,97.60
2019-02-26T20:57:40.481Z,97.60
2019-02-26T21:00:13.567Z,96.70
2019-02-26T21:02:45.597Z,96.30
2019-02-26T21:05:16.421Z,96.70
2019-02-26T21:07:47.109Z,98.20
2019-02-26T21:10:17.793Z,98.70
2019-02-26T21:12:48.213Z,97.70
2019-02-26T21:15:19.554Z,97.20
2019-02-26T21:17:50.973Z,98.00
2019-02-26T21:20:22.439Z,99.40
2019-02-26T21:22:58.966Z,99.80
2019-02-26T21:25:29.313Z,99.90
2019-02-26T21:28:01.408Z,98.60
2019-02-26T21:30:31.649Z,98.40
2019-02-26T21:33:01.995Z,98.00
2019-02-26T21:35:32.457Z,97.70
2019-02-26T21:38:05.689Z,97.50
2019-02-26T21:40:34.818Z,98.20
2019-02-26T21:43:05.166Z,99.10
2019-02-26T21:45:35.640Z,99.10
2019-02-26T21:48:05.972Z,97.70
2019-02-26T21:50:36.720Z,99.20
2019-02-26T21:53:07.054Z,98.20
2019-02-26T21:55:44.496Z,97.60
2019-02-26T21:58:09.497Z,97.90
2019-02-26T22:00:39.882Z,98.20
2019-02-26T22:03:10.461Z,99.50
2019-02-26T22:05:40.841Z,99.20
2019-02-26T22:08:11.198Z,98.80
2019-02-26T22:10:42.826Z,98.30
2019-02-26T22:13:13.551Z,98.20
2019-02-26T22:15:45.141Z,99.60
2019-02-26T22:18:15.513Z,99.00
2019-02-26T22:20:45.991Z,99.00
2019-02-26T22:23:16.457Z,98.40
2019-02-26T22:25:46.841Z,99.30
2019-02-26T22:28:17.213Z,98.50
2019-02-26T22:30:47.545Z,98.80
2019-02-26T22:33:17.939Z,97.60
2019-02-26T22:35:48.286Z,99.80
2019-02-26T22:38:18.665Z,99.90
2019-02-26T22:40:49.016Z,98.60
2019-02-26T22:43:19.405Z,99.40
2019-02-26T22:45:49.833Z,99.90
2019-02-26T22:48:20.377Z,99.90
2019-02-26T22:50:50.717Z,99.90
2019-02-26T22:53:21.090Z,99.60
2019-02-26T22:55:51.440Z,99.90
2019-02-26T22:58:21.833Z,99.10
2019-02-26T23:01:30.496Z,98.50
2019-02-26T23:04:00.821Z,97.90
2019-02-26T23:06:31.751Z,97.90
2019-02-26T23:09:03.757Z,98.30
2019-02-26T23:11:36.132Z,98.50
2019-02-26T23:14:07.510Z,98.80
2019-02-26T23:16:37.861Z,99.80
2019-02-26T23:19:08.267Z,99.90
2019-02-26T23:21:38.978Z,99.10
2019-02-26T23:24:09.771Z,98.70
2019-02-26T23:26:42.500Z,98.00
2019-02-26T23:29:12.829Z,98.30
2019-02-26T23:31:43.246Z,99.90
2019-02-26T23:34:13.621Z,99.90
2019-02-26T23:36:44.161Z,99.00
2019-02-26T23:39:15.897Z,99.20
2019-02-26T23:41:48.821Z,99.50
2019-02-26T23:44:19.225Z,99.40
2019-02-26T23:46:49.569Z,99.90
2019-02-26T23:49:21.021Z,99.30
2019-02-26T23:51:53.726Z,98.20
2019-02-26T23:54:26.072Z,98.30
2019-02-26T23:56:56.509Z,98.60
2019-02-26T23:59:26.971Z,99.90
